Terminal Aerodrome Forecast
Issued by NWS Central Illinois

Home | Current Version | Previous Version | Text Only | Print | Product List | Glossary On
Versions: 1 2 3 4 5 6 7 8 9 10 11 12 13 14 15 16 17 18 19 20 21 22 23 24
163
FTUS43 KILX 201401 AAB
TAFPIA
TAF AMD
KPIA 201401Z 2014/2112 08007KT 4SM BR FEW045
     FM201500 08008KT P6SM SCT050 BKN120
     FM201800 08005KT P6SM VCTS OVC045CB
     FM202100 06005KT P6SM OVC050
     FM210600 07007KT P6SM VCTS OVC040CB
     FM211000 08005KT P6SM BKN010=

USA.gov is the U.S. government's official web portal to all federal, state and local government web resources and services.